sensor_id;sensor_type;location;lat;lon;timestamp;temperature;humidity
44627;DHT22;30333;52.192;8.834;2023-02-28T00:11:11;0.20;99.90
44627;DHT22;30333;52.192;8.834;2023-02-28T00:13:40;0.20;99.90
44627;DHT22;30333;52.192;8.834;2023-02-28T00:16:08;0.20;99.90
44627;DHT22;30333;52.192;8.834;2023-02-28T00:50:17;0.00;99.90
44627;DHT22;30333;52.192;8.834;2023-02-28T01:03:14;0.20;99.90
44627;DHT22;30333;52.192;8.834;2023-02-28T01:16:33;0.40;99.90
44627;DHT22;30333;52.192;8.834;2023-02-28T01:39:13;0.10;99.90
44627;DHT22;30333;52.192;8.834;2023-02-28T01:45:27;0.00;99.90
44627;DHT22;30333;52.192;8.834;2023-02-28T01:48:09;-0.10;99.90
44627;DHT22;30333;52.192;8.834;2023-02-28T01:51:27;-0.20;99.90
44627;DHT22;30333;52.192;8.834;2023-02-28T01:54:16;-0.20;99.90
44627;DHT22;30333;52.192;8.834;2023-02-28T01:57:14;-0.50;99.90
44627;DHT22;30333;52.192;8.834;2023-02-28T02:00:17;-1.40;99.90
44627;DHT22;30333;52.192;8.834;2023-02-28T02:03:31;-0.70;99.90
44627;DHT22;30333;52.192;8.834;2023-02-28T02:06:00;-0.50;99.90
44627;DHT22;30333;52.192;8.834;2023-02-28T02:09:00;-0.30;99.90
44627;DHT22;30333;52.192;8.834;2023-02-28T02:36:06;0.20;99.90
44627;DHT22;30333;52.192;8.834;2023-02-28T02:39:05;-0.20;99.90
44627;DHT22;30333;52.192;8.834;2023-02-28T02:41:58;-0.60;99.90
44627;DHT22;30333;52.192;8.834;2023-02-28T02:47:15;-0.50;99.90
44627;DHT22;30333;52.192;8.834;2023-02-28T02:49:49;-0.50;99.90
44627;DHT22;30333;52.192;8.834;2023-02-28T02:52:17;-0.50;99.90
44627;DHT22;30333;52.192;8.834;2023-02-28T02:54:44;0.00;99.90
44627;DHT22;30333;52.192;8.834;2023-02-28T02:57:15;-0.90;99.90
44627;DHT22;30333;52.192;8.834;2023-02-28T02:59:42;-1.40;99.90
44627;DHT22;30333;52.192;8.834;2023-02-28T03:02:09;-1.70;99.90
44627;DHT22;30333;52.192;8.834;2023-02-28T03:04:38;-0.80;99.90
44627;DHT22;30333;52.192;8.834;2023-02-28T03:07:06;-1.40;99.90
44627;DHT22;30333;52.192;8.834;2023-02-28T03:09:32;-0.70;99.90
44627;DHT22;30333;52.192;8.834;2023-02-28T03:11:58;-0.90;99.90
44627;DHT22;30333;52.192;8.834;2023-02-28T06:00:56;-2.40;99.90
44627;DHT22;30333;52.192;8.834;2023-02-28T06:03:22;-2.20;99.90
44627;DHT22;30333;52.192;8.834;2023-02-28T06:05:48;-1.20;99.90
44627;DHT22;30333;52.192;8.834;2023-02-28T06:08:13;-2.70;99.90
44627;DHT22;30333;52.192;8.834;2023-02-28T06:10:39;-1.40;99.90
44627;DHT22;30333;52.192;8.834;2023-02-28T06:13:05;-2.10;99.90
44627;DHT22;30333;52.192;8.834;2023-02-28T06:15:30;-2.10;99.90
44627;DHT22;30333;52.192;8.834;2023-02-28T06:17:58;-2.50;99.90
44627;DHT22;30333;52.192;8.834;2023-02-28T06:20:32;-1.10;99.90
44627;DHT22;30333;52.192;8.834;2023-02-28T06:22:58;-2.40;99.90
44627;DHT22;30333;52.192;8.834;2023-02-28T06:25:25;-2.80;99.90
44627;DHT22;30333;52.192;8.834;2023-02-28T06:27:51;0.10;99.90
44627;DHT22;30333;52.192;8.834;2023-02-28T06:30:16;-0.10;99.90
44627;DHT22;30333;52.192;8.834;2023-02-28T06:32:42;0.10;99.90
44627;DHT22;30333;52.192;8.834;2023-02-28T06:35:08;-0.70;99.90
44627;DHT22;30333;52.192;8.834;2023-02-28T06:37:35;-0.40;99.90
44627;DHT22;30333;52.192;8.834;2023-02-28T06:40:01;-1.30;99.90
44627;DHT22;30333;52.192;8.834;2023-02-28T06:42:27;-1.70;99.90
44627;DHT22;30333;52.192;8.834;2023-02-28T06:45:00;-0.60;99.90
44627;DHT22;30333;52.192;8.834;2023-02-28T06:47:30;-2.30;99.90
44627;DHT22;30333;52.192;8.834;2023-02-28T06:49:56;-0.80;99.90
44627;DHT22;30333;52.192;8.834;2023-02-28T06:52:22;-0.40;99.90
44627;DHT22;30333;52.192;8.834;2023-02-28T06:54:47;-2.00;99.90
44627;DHT22;30333;52.192;8.834;2023-02-28T06:57:34;-1.80;99.90
44627;DHT22;30333;52.192;8.834;2023-02-28T07:00:26;-2.20;99.90
44627;DHT22;30333;52.192;8.834;2023-02-28T07:02:52;-2.00;99.90
44627;DHT22;30333;52.192;8.834;2023-02-28T07:05:20;-2.40;99.90
44627;DHT22;30333;52.192;8.834;2023-02-28T07:07:46;-1.30;99.90
44627;DHT22;30333;52.192;8.834;2023-02-28T07:10:23;-0.70;99.90
44627;DHT22;30333;52.192;8.834;2023-02-28T07:12:48;-4.50;99.90
44627;DHT22;30333;52.192;8.834;2023-02-28T07:15:14;-1.50;99.90
44627;DHT22;30333;52.192;8.834;2023-02-28T07:17:40;-1.40;99.90
44627;DHT22;30333;52.192;8.834;2023-02-28T07:20:06;0.50;99.90
44627;DHT22;30333;52.192;8.834;2023-02-28T07:22:32;-1.50;99.90
44627;DHT22;30333;52.192;8.834;2023-02-28T07:24:57;-2.50;99.90
44627;DHT22;30333;52.192;8.834;2023-02-28T07:27:23;-1.20;99.90
44627;DHT22;30333;52.192;8.834;2023-02-28T07:30:09;-0.70;99.90
44627;DHT22;30333;52.192;8.834;2023-02-28T07:32:34;-1.50;99.90
44627;DHT22;30333;52.192;8.834;2023-02-28T07:35:13;0.90;99.90
44627;DHT22;30333;52.192;8.834;2023-02-28T07:37:59;0.60;99.90
44627;DHT22;30333;52.192;8.834;2023-02-28T07:43:18;-1.50;99.90
44627;DHT22;30333;52.192;8.834;2023-02-28T07:45:44;1.60;99.90
44627;DHT22;30333;52.192;8.834;2023-02-28T07:48:30;1.60;99.90
44627;DHT22;30333;52.192;8.834;2023-02-28T07:50:56;-1.20;99.90
44627;DHT22;30333;52.192;8.834;2023-02-28T07:54:00;1.40;99.90
44627;DHT22;30333;52.192;8.834;2023-02-28T07:56:27;-0.80;99.90
44627;DHT22;30333;52.192;8.834;2023-02-28T07:58:53;-0.90;99.90
44627;DHT22;30333;52.192;8.834;2023-02-28T08:01:39;1.40;99.90
44627;DHT22;30333;52.192;8.834;2023-02-28T08:04:25;-0.70;99.90
44627;DHT22;30333;52.192;8.834;2023-02-28T08:07:22;0.10;99.90
44627;DHT22;30333;52.192;8.834;2023-02-28T08:10:08;0.60;99.90
44627;DHT22;30333;52.192;8.834;2023-02-28T08:12:36;-0.40;99.90
44627;DHT22;30333;52.192;8.834;2023-02-28T08:15:22;-2.00;99.90
44627;DHT22;30333;52.192;8.834;2023-02-28T08:18:06;1.40;99.90
44627;DHT22;30333;52.192;8.834;2023-02-28T08:20:31;0.00;99.90
44627;DHT22;30333;52.192;8.834;2023-02-28T08:22:57;0.60;99.90
44627;DHT22;30333;52.192;8.834;2023-02-28T08:25:23;1.00;99.90
44627;DHT22;30333;52.192;8.834;2023-02-28T08:27:58;-0.70;99.90
44627;DHT22;30333;52.192;8.834;2023-02-28T08:30:23;0.10;99.90
44627;DHT22;30333;52.192;8.834;2023-02-28T08:32:54;1.20;99.90
44627;DHT22;30333;52.192;8.834;2023-02-28T08:35:55;0.70;99.90
44627;DHT22;30333;52.192;8.834;2023-02-28T08:39:15;1.10;99.90
44627;DHT22;30333;52.192;8.834;2023-02-28T13:36:28;6.10;91.10
44627;DHT22;30333;52.192;8.834;2023-02-28T13:38:56;6.10;90.30
44627;DHT22;30333;52.192;8.834;2023-02-28T13:51:45;6.10;89.80
44627;DHT22;30333;52.192;8.834;2023-02-28T13:54:33;6.10;88.30
44627;DHT22;30333;52.192;8.834;2023-02-28T21:16:14;0.30;99.90
44627;DHT22;30333;52.192;8.834;2023-02-28T22:22:02;-0.60;99.90
44627;DHT22;30333;52.192;8.834;2023-02-28T23:35:26;-0.90;99.90
44627;DHT22;30333;52.192;8.834;2023-02-28T23:57:35;-1.00;99.90
